Time;durP1;ratioP1;P1;durP2;ratioP2;P2;SDS_P1;SDS_P2;PMS_P1;PMS_P2;Temp;Humidity;BMP_temperature;BMP_pressure;BME280_temperature;BME280_humidity;BME280_pressure;Samples;Min_cycle;Max_cycle;Signal;HPM_P1;HPM_P2
2023/10/28 00:00:54;;;;;;;18.33;10.90;;;9.80;99.90;;;;;;5032539;28;20175;-73
2023/10/28 00:03:20;;;;;;;20.80;10.80;;;9.80;99.90;;;;;;5031786;28;20257;-73
2023/10/28 00:05:46;;;;;;;17.83;11.10;;;9.90;99.90;;;;;;5031790;28;20551;-73
2023/10/28 00:08:12;;;;;;;20.37;12.20;;;9.90;99.90;;;;;;5032274;28;20235;-74
2023/10/28 00:10:39;;;;;;;20.37;10.57;;;9.90;99.90;;;;;;5031782;28;20198;-73
2023/10/28 00:13:08;;;;;;;20.17;11.27;;;9.90;99.90;;;;;;5032214;28;20249;-73
2023/10/28 00:15:35;;;;;;;19.70;11.17;;;9.90;99.90;;;;;;5032274;28;20190;-73
2023/10/28 00:18:01;;;;;;;22.87;11.10;;;9.90;99.90;;;;;;5031827;28;20171;-73
2023/10/28 00:20:29;;;;;;;16.93;11.20;;;9.90;99.90;;;;;;5032553;28;20653;-72
2023/10/28 00:22:55;;;;;;;19.33;11.30;;;9.90;99.90;;;;;;5032271;28;20194;-72
2023/10/28 00:25:29;;;;;;;23.00;11.73;;;10.00;99.90;;;;;;5032198;28;20254;-72
2023/10/28 00:27:55;;;;;;;15.53;10.17;;;10.00;99.90;;;;;;5032557;28;20174;-73
2023/10/28 00:30:24;;;;;;;16.97;11.03;;;10.00;99.90;;;;;;5031809;28;20175;-72
2023/10/28 00:32:56;;;;;;;17.37;11.07;;;10.10;99.90;;;;;;5031445;28;20238;-73
2023/10/28 00:35:22;;;;;;;18.77;9.67;;;10.10;99.90;;;;;;5031221;28;20175;-73
2023/10/28 00:37:48;;;;;;;13.60;8.40;;;10.10;99.90;;;;;;5031644;28;20580;-73
2023/10/28 00:40:14;;;;;;;17.97;8.37;;;10.20;99.90;;;;;;5031696;28;20180;-71
2023/10/28 00:42:39;;;;;;;12.17;8.37;;;10.20;99.90;;;;;;5031350;28;20179;-71
2023/10/28 00:45:08;;;;;;;11.87;8.33;;;10.20;99.90;;;;;;5030931;28;20175;-72
2023/10/28 00:47:36;;;;;;;9.97;8.83;;;10.30;99.90;;;;;;5031392;28;20189;-73
2023/10/28 00:50:09;;;;;;;16.60;9.57;;;10.30;99.90;;;;;;5031474;28;20189;-73
2023/10/28 00:52:44;;;;;;;10.83;7.90;;;10.30;99.90;;;;;;5031139;28;20203;-72
2023/10/28 00:55:11;;;;;;;16.27;8.43;;;10.30;99.90;;;;;;5031184;28;20249;-72
2023/10/28 00:57:39;;;;;;;13.87;8.13;;;10.30;99.90;;;;;;5031287;28;20172;-73
2023/10/28 01:00:08;;;;;;;10.30;8.20;;;10.30;99.90;;;;;;5031120;28;20168;-73
2023/10/28 01:02:42;;;;;;;14.43;8.13;;;10.30;99.90;;;;;;5030995;28;20183;-73
2023/10/28 01:05:11;;;;;;;11.00;7.60;;;10.30;99.90;;;;;;5031240;28;20182;-73
2023/10/28 01:07:42;;;;;;;18.10;7.53;;;10.30;99.90;;;;;;5031133;28;20259;-72
2023/10/28 01:10:08;;;;;;;16.73;7.90;;;10.40;99.90;;;;;;5031204;28;20184;-73
2023/10/28 01:12:35;;;;;;;13.43;9.00;;;10.40;99.90;;;;;;5030733;28;20735;-72
2023/10/28 01:15:01;;;;;;;13.50;7.60;;;10.40;99.90;;;;;;5030870;28;20175;-72
2023/10/28 01:17:27;;;;;;;15.10;7.57;;;10.30;99.90;;;;;;5030887;28;20171;-73
2023/10/28 01:19:53;;;;;;;12.97;7.13;;;10.40;99.90;;;;;;5031054;28;20186;-72
2023/10/28 01:22:23;;;;;;;12.60;6.87;;;10.40;99.90;;;;;;5030943;28;20207;-73
2023/10/28 01:24:52;;;;;;;9.20;7.10;;;10.40;99.90;;;;;;5030681;28;20199;-72
2023/10/28 01:27:19;;;;;;;11.67;6.73;;;10.40;99.90;;;;;;5030957;28;20179;-72
2023/10/28 01:29:46;;;;;;;8.23;5.40;;;10.40;99.90;;;;;;5031765;28;20190;-73
2023/10/28 01:32:12;;;;;;;7.83;5.83;;;10.40;99.90;;;;;;5034911;28;20222;-73
2023/10/28 01:34:48;;;;;;;8.87;4.90;;;10.40;99.90;;;;;;5034584;28;20195;-73
2023/10/28 01:37:16;;;;;;;5.07;4.57;;;10.40;99.90;;;;;;5034780;28;20182;-73
2023/10/28 01:39:47;;;;;;;7.60;5.13;;;10.40;99.90;;;;;;5034464;28;20183;-73
2023/10/28 01:42:13;;;;;;;10.47;5.30;;;10.50;99.90;;;;;;5034550;28;20538;-72
2023/10/28 01:44:39;;;;;;;5.53;4.90;;;10.50;99.90;;;;;;5034244;28;20572;-72
2023/10/28 01:47:08;;;;;;;7.00;4.60;;;10.50;99.90;;;;;;5035000;28;20171;-72
2023/10/28 01:49:34;;;;;;;5.17;4.50;;;10.60;99.90;;;;;;5035245;28;20183;-72
2023/10/28 01:52:00;;;;;;;8.43;4.50;;;10.60;99.90;;;;;;5035849;28;20575;-72
2023/10/28 01:54:25;;;;;;;6.80;4.77;;;10.60;99.90;;;;;;5034664;28;20192;-73
2023/10/28 01:56:51;;;;;;;5.20;4.70;;;10.60;99.90;;;;;;5034278;28;20245;-73
2023/10/28 01:59:17;;;;;;;7.63;4.53;;;10.60;99.90;;;;;;5034391;28;20262;-73
2023/10/28 02:01:43;;;;;;;6.27;4.20;;;10.70;99.90;;;;;;5034165;28;20201;-72
2023/10/28 02:04:08;;;;;;;4.53;4.13;;;10.70;99.90;;;;;;5034056;28;20272;-73
2023/10/28 02:06:34;;;;;;;7.40;4.23;;;10.70;99.90;;;;;;5033635;28;20183;-74
2023/10/28 02:08:59;;;;;;;6.20;4.00;;;10.70;99.90;;;;;;5034183;28;20175;-72
2023/10/28 02:11:25;;;;;;;5.90;3.97;;;10.80;99.90;;;;;;5034049;28;20242;-72
2023/10/28 02:13:50;;;;;;;7.10;4.20;;;10.80;99.90;;;;;;5033843;28;20206;-72
2023/10/28 02:16:16;;;;;;;4.57;4.13;;;10.80;99.90;;;;;;5034124;28;20172;-72
2023/10/28 02:18:42;;;;;;;5.33;3.87;;;10.70;99.90;;;;;;5034441;28;20199;-72
2023/10/28 02:21:07;;;;;;;7.13;4.03;;;10.70;99.90;;;;;;5034418;28;20179;-72
2023/10/28 02:23:33;;;;;;;4.17;3.83;;;10.70;99.90;;;;;;5033814;28;20215;-72
2023/10/28 02:25:58;;;;;;;5.97;3.80;;;10.70;99.90;;;;;;5034053;28;20664;-72
2023/10/28 02:28:24;;;;;;;4.67;4.07;;;10.70;99.90;;;;;;5034068;28;20219;-72
2023/10/28 02:30:50;;;;;;;4.70;4.20;;;10.70;99.90;;;;;;5033888;28;20547;-73
2023/10/28 02:33:15;;;;;;;6.53;4.27;;;10.70;99.90;;;;;;5033634;28;20210;-72
2023/10/28 02:35:41;;;;;;;4.50;4.07;;;10.70;99.90;;;;;;5033535;28;20194;-73
2023/10/28 02:38:06;;;;;;;6.47;4.70;;;10.70;99.90;;;;;;5034206;28;20254;-72
2023/10/28 02:40:32;;;;;;;4.23;3.87;;;10.60;99.90;;;;;;5033926;28;20186;-72
2023/10/28 02:42:57;;;;;;;4.70;4.30;;;10.60;99.90;;;;;;5033115;28;20345;-72
2023/10/28 02:45:23;;;;;;;7.30;4.47;;;10.60;99.90;;;;;;5033711;28;20595;-72
2023/10/28 02:47:49;;;;;;;8.53;4.17;;;10.50;99.90;;;;;;5033577;28;20263;-73
2023/10/28 02:50:16;;;;;;;5.43;4.47;;;10.50;99.90;;;;;;5033672;28;20210;-72
2023/10/28 02:52:42;;;;;;;4.40;4.00;;;10.50;99.90;;;;;;5033459;28;20647;-73
2023/10/28 02:55:08;;;;;;;6.73;4.30;;;10.50;99.90;;;;;;5033383;28;20171;-72
2023/10/28 02:57:33;;;;;;;6.73;4.00;;;10.50;99.90;;;;;;5033386;28;20641;-72
2023/10/28 02:59:59;;;;;;;4.43;4.13;;;10.40;99.90;;;;;;5033514;28;20235;-74
2023/10/28 03:02:25;;;;;;;4.60;4.10;;;10.40;99.90;;;;;;5033436;28;20179;-73
2023/10/28 03:04:51;;;;;;;7.00;4.20;;;10.40;99.90;;;;;;5033048;28;20207;-73
2023/10/28 03:07:17;;;;;;;4.50;4.10;;;10.30;99.90;;;;;;5033375;28;20644;-72
2023/10/28 03:09:42;;;;;;;4.53;4.10;;;10.30;99.90;;;;;;5033207;28;20175;-72
2023/10/28 03:12:08;;;;;;;4.30;3.87;;;10.30;99.90;;;;;;5033219;28;20312;-73
2023/10/28 03:14:34;;;;;;;11.67;4.10;;;10.20;99.90;;;;;;5032935;28;20696;-72
2023/10/28 03:16:59;;;;;;;5.63;3.87;;;10.20;99.90;;;;;;5033027;28;20664;-72
2023/10/28 03:19:25;;;;;;;4.70;4.20;;;10.20;99.90;;;;;;5032907;28;20187;-73
2023/10/28 03:21:50;;;;;;;4.77;3.87;;;10.20;99.90;;;;;;5032998;28;20179;-73
2023/10/28 03:24:16;;;;;;;5.33;4.20;;;10.30;99.90;;;;;;5032913;28;20643;-72
2023/10/28 03:26:42;;;;;;;5.57;4.67;;;10.30;99.90;;;;;;5032978;28;20180;-74
2023/10/28 03:29:07;;;;;;;7.33;3.87;;;10.20;99.90;;;;;;5032830;28;20187;-73
2023/10/28 03:31:33;;;;;;;4.10;3.80;;;10.20;99.90;;;;;;5032657;28;20203;-73
2023/10/28 03:33:59;;;;;;;4.40;4.00;;;10.20;99.90;;;;;;5032735;28;20195;-72
2023/10/28 03:36:25;;;;;;;4.50;3.80;;;10.10;99.90;;;;;;5032796;28;20172;-73
2023/10/28 03:38:50;;;;;;;4.60;4.20;;;10.00;99.90;;;;;;5033015;28;20641;-72
2023/10/28 03:41:16;;;;;;;6.83;4.33;;;9.90;99.90;;;;;;5032890;28;20180;-72
2023/10/28 03:43:41;;;;;;;4.87;4.40;;;9.90;99.90;;;;;;5032099;28;20206;-73
2023/10/28 03:46:07;;;;;;;5.33;4.33;;;9.80;99.90;;;;;;5032164;28;20188;-72
2023/10/28 03:48:33;;;;;;;5.40;4.40;;;9.80;99.90;;;;;;5012667;28;20195;-72
2023/10/28 03:51:02;;;;;;;5.10;4.60;;;9.70;99.90;;;;;;5027984;28;20219;-74
2023/10/28 03:53:28;;;;;;;6.20;4.20;;;9.60;99.90;;;;;;5012479;28;20195;-73
2023/10/28 03:55:53;;;;;;;8.40;4.27;;;9.50;99.90;;;;;;5021162;28;20629;-73
2023/10/28 03:58:19;;;;;;;7.43;4.10;;;9.50;99.90;;;;;;5032423;28;20172;-72
2023/10/28 04:00:45;;;;;;;4.37;3.93;;;9.40;99.90;;;;;;5032267;28;20629;-73
2023/10/28 04:03:12;;;;;;;4.63;4.23;;;9.30;99.90;;;;;;5031818;28;20557;-72
2023/10/28 04:05:38;;;;;;;5.77;4.40;;;9.30;99.90;;;;;;5031914;28;20167;-73
2023/10/28 04:08:04;;;;;;;5.17;4.60;;;9.30;99.90;;;;;;5032217;28;20172;-72
2023/10/28 04:10:30;;;;;;;5.47;4.47;;;9.30;99.90;;;;;;5032151;28;20182;-73
2023/10/28 04:12:55;;;;;;;8.87;4.20;;;9.30;99.90;;;;;;5031947;28;20282;-72
2023/10/28 04:15:21;;;;;;;5.03;4.63;;;9.30;99.90;;;;;;5031696;28;20164;-72
2023/10/28 04:17:46;;;;;;;4.80;4.40;;;9.40;99.90;;;;;;5032045;28;20191;-72
2023/10/28 04:20:12;;;;;;;6.30;4.70;;;9.40;99.90;;;;;;5031995;28;20172;-72
2023/10/28 04:22:38;;;;;;;4.00;3.70;;;9.40;99.90;;;;;;5031841;28;20203;-72
2023/10/28 04:25:05;;;;;;;4.27;4.00;;;9.40;99.90;;;;;;5031515;28;20214;-73
2023/10/28 04:27:32;;;;;;;5.80;4.37;;;9.50;99.90;;;;;;5031797;28;20587;-73
2023/10/28 04:29:57;;;;;;;5.13;4.63;;;9.50;99.90;;;;;;5031776;28;20183;-72
2023/10/28 04:32:23;;;;;;;7.23;4.50;;;9.50;99.90;;;;;;5031530;28;20211;-73
2023/10/28 04:34:50;;;;;;;4.77;4.47;;;9.50;99.90;;;;;;5031474;28;20282;-72
2023/10/28 04:37:16;;;;;;;4.80;4.40;;;9.50;99.90;;;;;;5031762;28;20683;-72
2023/10/28 04:39:42;;;;;;;4.93;4.40;;;9.50;99.90;;;;;;5031474;28;20187;-73
2023/10/28 04:42:07;;;;;;;4.70;4.40;;;9.60;99.90;;;;;;5031696;28;20179;-72
2023/10/28 04:44:33;;;;;;;4.47;4.10;;;9.70;99.90;;;;;;5031265;28;20187;-74
2023/10/28 04:47:01;;;;;;;6.27;4.30;;;9.70;99.90;;;;;;5031141;28;20190;-74
2023/10/28 04:49:29;;;;;;;4.90;4.47;;;9.80;99.90;;;;;;5031308;28;20221;-73
2023/10/28 04:51:55;;;;;;;4.97;4.50;;;9.80;99.90;;;;;;5031067;28;20673;-72
2023/10/28 04:54:22;;;;;;;5.70;4.30;;;9.80;99.90;;;;;;5031323;28;20202;-74
2023/10/28 04:56:49;;;;;;;4.70;4.40;;;9.90;99.90;;;;;;5031430;28;20178;-74
2023/10/28 04:59:15;;;;;;;5.33;4.90;;;9.90;99.90;;;;;;5031550;28;20160;-73
2023/10/28 05:01:41;;;;;;;4.60;4.30;;;9.90;99.90;;;;;;5031208;28;20168;-72
2023/10/28 05:04:08;;;;;;;6.40;4.40;;;9.90;99.90;;;;;;5030758;28;20219;-73
2023/10/28 05:06:34;;;;;;;4.43;4.03;;;9.90;99.90;;;;;;5031220;28;20266;-73
2023/10/28 05:08:59;;;;;;;4.50;4.10;;;9.90;99.90;;;;;;5031414;28;20199;-73
2023/10/28 05:11:25;;;;;;;4.53;4.20;;;9.90;99.90;;;;;;5031234;28;20699;-73
2023/10/28 05:13:51;;;;;;;5.50;4.57;;;9.90;99.90;;;;;;5031186;28;20190;-73
2023/10/28 05:16:18;;;;;;;4.97;4.47;;;9.90;99.90;;;;;;5031353;28;20168;-73
2023/10/28 05:18:45;;;;;;;4.70;4.30;;;9.90;99.90;;;;;;5031273;28;20226;-73
2023/10/28 05:21:11;;;;;;;5.80;4.97;;;9.90;99.90;;;;;;5031425;28;20255;-72
2023/10/28 05:23:37;;;;;;;6.63;4.37;;;9.90;99.90;;;;;;5031039;28;20338;-72
2023/10/28 05:26:04;;;;;;;5.33;4.83;;;9.90;99.90;;;;;;5031300;28;20266;-74
2023/10/28 05:28:30;;;;;;;5.63;4.73;;;9.90;99.90;;;;;;5031431;28;20210;-72
2023/10/28 05:30:56;;;;;;;4.77;4.37;;;9.90;99.90;;;;;;5031104;28;20598;-73
2023/10/28 05:33:21;;;;;;;5.10;4.60;;;9.90;99.90;;;;;;5031130;28;20233;-74
2023/10/28 05:35:48;;;;;;;4.93;4.53;;;9.90;99.90;;;;;;5030017;28;20174;-72
2023/10/28 05:38:14;;;;;;;5.00;4.60;;;9.90;99.90;;;;;;5030327;28;20170;-72
2023/10/28 05:40:40;;;;;;;5.10;4.63;;;9.90;99.90;;;;;;5029732;28;20178;-73
2023/10/28 05:43:05;;;;;;;5.57;5.10;;;9.90;99.90;;;;;;5030976;28;20200;-72
2023/10/28 05:45:31;;;;;;;5.07;4.60;;;9.90;99.90;;;;;;5030474;28;20603;-73
2023/10/28 05:47:57;;;;;;;7.60;5.37;;;9.90;99.90;;;;;;5030962;28;20211;-72
2023/10/28 05:50:23;;;;;;;6.33;4.90;;;9.80;99.90;;;;;;5031030;28;20202;-72
2023/10/28 05:52:49;;;;;;;5.80;5.30;;;9.80;99.90;;;;;;5030971;28;20223;-72
2023/10/28 05:55:15;;;;;;;5.13;4.73;;;9.80;99.90;;;;;;5030714;28;20263;-72
2023/10/28 05:57:41;;;;;;;7.10;5.30;;;9.70;99.90;;;;;;5030774;28;20237;-73
2023/10/28 06:00:11;;;;;;;7.27;5.53;;;9.70;99.90;;;;;;5030718;28;20696;-72
2023/10/28 06:02:37;;;;;;;8.87;5.07;;;9.70;99.90;;;;;;5030779;28;20180;-73
2023/10/28 06:05:06;;;;;;;7.63;5.83;;;9.70;99.90;;;;;;5030447;28;20192;-72
2023/10/28 06:07:32;;;;;;;10.37;5.73;;;9.70;99.90;;;;;;5030555;28;20183;-73
2023/10/28 06:09:58;;;;;;;7.77;6.13;;;9.70;99.90;;;;;;5028863;28;20195;-72
2023/10/28 06:12:25;;;;;;;6.57;5.97;;;9.70;99.90;;;;;;5029797;28;20207;-73
2023/10/28 06:14:51;;;;;;;6.77;5.83;;;9.70;99.90;;;;;;5029567;28;20668;-72
2023/10/28 06:17:17;;;;;;;6.93;6.30;;;9.70;99.90;;;;;;5031963;28;20171;-73
2023/10/28 06:19:43;;;;;;;7.57;6.87;;;9.70;99.90;;;;;;5032301;28;20177;-72
2023/10/28 06:22:11;;;;;;;10.40;7.27;;;9.70;99.90;;;;;;5033024;28;20635;-73
2023/10/28 06:24:38;;;;;;;8.83;8.03;;;9.70;99.90;;;;;;5033555;28;20202;-73
2023/10/28 06:27:04;;;;;;;11.50;9.27;;;9.70;99.90;;;;;;5031779;28;20254;-73
2023/10/28 06:29:30;;;;;;;12.90;9.73;;;9.70;99.90;;;;;;5033774;28;20415;-73
2023/10/28 06:31:58;;;;;;;10.50;9.40;;;9.70;99.90;;;;;;5033569;28;20218;-73
2023/10/28 06:34:27;;;;;;;13.37;10.47;;;9.70;99.90;;;;;;5033409;28;20602;-73
2023/10/28 06:36:55;;;;;;;11.67;10.00;;;9.80;99.90;;;;;;5033512;28;20636;-73
2023/10/28 06:39:21;;;;;;;12.03;9.57;;;9.80;99.90;;;;;;5033620;28;20163;-73
2023/10/28 06:41:47;;;;;;;11.63;10.20;;;9.80;99.90;;;;;;5033184;28;20182;-73
2023/10/28 06:44:13;;;;;;;10.83;9.50;;;9.90;99.90;;;;;;5033522;28;20200;-73
2023/10/28 06:46:39;;;;;;;14.77;10.23;;;9.90;99.90;;;;;;5033514;28;20229;-74
2023/10/28 06:49:05;;;;;;;13.03;10.33;;;9.90;99.90;;;;;;5033534;28;20179;-74
2023/10/28 06:51:32;;;;;;;10.97;9.87;;;9.90;99.90;;;;;;5033240;28;20575;-74
2023/10/28 06:53:58;;;;;;;13.60;9.70;;;10.00;99.90;;;;;;5033081;28;20183;-74
2023/10/28 06:56:25;;;;;;;12.03;9.97;;;10.00;99.90;;;;;;5031948;28;20726;-73
2023/10/28 06:58:51;;;;;;;12.80;9.33;;;10.00;99.90;;;;;;5033098;28;20259;-74
2023/10/28 07:01:19;;;;;;;13.17;10.33;;;10.10;99.90;;;;;;5033125;28;20168;-74
2023/10/28 07:03:45;;;;;;;14.07;9.27;;;10.10;99.90;;;;;;5032919;28;20207;-73
2023/10/28 07:06:14;;;;;;;13.43;10.03;;;10.10;99.90;;;;;;5033044;28;20489;-74
2023/10/28 07:08:43;;;;;;;14.30;9.77;;;10.20;99.90;;;;;;5031534;28;20207;-73
2023/10/28 07:11:13;;;;;;;12.43;10.20;;;10.20;99.90;;;;;;5032914;28;20203;-73
2023/10/28 07:13:39;;;;;;;10.60;8.37;;;10.20;99.90;;;;;;5032755;28;20660;-73
2023/10/28 07:16:05;;;;;;;11.83;8.73;;;10.20;99.90;;;;;;5032362;28;20712;-73
2023/10/28 07:18:31;;;;;;;10.77;8.37;;;10.20;99.90;;;;;;5032830;28;20255;-74
2023/10/28 07:20:58;;;;;;;8.80;7.90;;;10.20;99.90;;;;;;5032780;28;20195;-73
2023/10/28 07:23:26;;;;;;;9.33;8.10;;;10.20;99.90;;;;;;5032566;28;20203;-74
2023/10/28 07:25:56;;;;;;;7.43;6.63;;;10.20;99.90;;;;;;5032308;28;20178;-73
2023/10/28 07:28:21;;;;;;;11.47;8.07;;;10.30;99.90;;;;;;5031613;28;20222;-74
2023/10/28 07:30:50;;;;;;;9.77;7.53;;;10.30;99.90;;;;;;5032401;28;20171;-74
2023/10/28 07:33:16;;;;;;;8.53;7.57;;;10.30;99.90;;;;;;5033936;28;20195;-73
2023/10/28 07:35:47;;;;;;;9.27;7.87;;;10.30;99.90;;;;;;5031995;28;20598;-74
2023/10/28 07:38:13;;;;;;;9.90;8.07;;;10.30;99.90;;;;;;5032345;28;20194;-73
2023/10/28 07:40:40;;;;;;;8.23;6.80;;;10.40;99.90;;;;;;5032434;28;20168;-73
2023/10/28 07:43:06;;;;;;;8.20;7.40;;;10.40;99.90;;;;;;5032045;28;20787;-73
2023/10/28 07:45:33;;;;;;;14.40;7.80;;;10.40;99.90;;;;;;5032032;28;20179;-73
2023/10/28 07:47:59;;;;;;;8.27;7.47;;;10.50;99.90;;;;;;5032011;28;20183;-73
2023/10/28 07:50:24;;;;;;;8.80;7.30;;;10.50;99.90;;;;;;5031898;28;20187;-74
2023/10/28 07:52:50;;;;;;;7.83;7.03;;;10.60;99.90;;;;;;5031982;28;20696;-73
2023/10/28 07:55:15;;;;;;;9.70;6.87;;;10.70;99.90;;;;;;5031582;28;20544;-73
2023/10/28 07:57:41;;;;;;;7.20;6.13;;;10.70;99.90;;;;;;5031809;28;20175;-74
2023/10/28 08:00:10;;;;;;;6.80;6.23;;;10.70;99.90;;;;;;5031781;28;20521;-74
2023/10/28 08:02:36;;;;;;;6.57;6.03;;;10.70;99.90;;;;;;5031937;28;20625;-74
2023/10/28 08:05:03;;;;;;;7.17;6.00;;;10.80;99.90;;;;;;5031590;28;20248;-74
2023/10/28 08:07:28;;;;;;;6.03;5.43;;;10.70;99.90;;;;;;5030167;28;20561;-72
2023/10/28 08:09:54;;;;;;;6.53;6.03;;;10.70;99.90;;;;;;5031711;28;20183;-73
2023/10/28 08:12:19;;;;;;;5.73;5.10;;;10.80;99.90;;;;;;5032064;28;20477;-73
2023/10/28 08:14:48;;;;;;;5.50;5.00;;;10.80;99.90;;;;;;5031798;28;20198;-73
2023/10/28 08:17:13;;;;;;;6.30;5.67;;;10.90;99.90;;;;;;5030631;28;20180;-73
2023/10/28 08:19:40;;;;;;;5.57;5.00;;;10.90;99.90;;;;;;5031795;28;20179;-73
2023/10/28 08:22:06;;;;;;;5.73;5.30;;;10.90;99.90;;;;;;5031814;28;20544;-73
2023/10/28 08:24:31;;;;;;;5.87;5.37;;;11.00;99.90;;;;;;5031407;28;20204;-73
2023/10/28 08:26:57;;;;;;;6.20;5.67;;;11.00;99.90;;;;;;5031411;28;20179;-73
2023/10/28 08:29:24;;;;;;;6.70;6.00;;;11.00;99.90;;;;;;5031676;28;20168;-74
2023/10/28 08:31:50;;;;;;;6.50;5.97;;;11.10;99.90;;;;;;5031609;28;20206;-73
2023/10/28 08:34:16;;;;;;;6.77;5.87;;;11.20;99.90;;;;;;5031301;28;20187;-73
2023/10/28 08:36:41;;;;;;;6.23;5.63;;;11.10;99.90;;;;;;5031502;28;20204;-73
2023/10/28 08:39:07;;;;;;;7.17;5.43;;;11.20;99.90;;;;;;5030682;28;20168;-74
2023/10/28 08:41:34;;;;;;;6.33;5.53;;;11.20;99.90;;;;;;5031422;28;20711;-74
2023/10/28 08:44:04;;;;;;;6.47;5.50;;;11.30;99.90;;;;;;5031041;28;20281;-74
2023/10/28 08:46:31;;;;;;;7.27;5.47;;;11.30;99.90;;;;;;5031078;28;20179;-74
2023/10/28 08:48:58;;;;;;;6.80;5.23;;;11.30;99.90;;;;;;5031217;28;20195;-74
2023/10/28 08:51:25;;;;;;;8.20;5.70;;;11.30;99.90;;;;;;5031276;28;20719;-74
2023/10/28 08:53:58;;;;;;;7.47;5.10;;;11.30;99.90;;;;;;5030354;28;20200;-74
2023/10/28 08:56:25;;;;;;;6.90;5.63;;;11.30;99.90;;;;;;5030566;28;20221;-74
2023/10/28 08:58:52;;;;;;;9.43;5.80;;;11.40;99.90;;;;;;5030945;28;20178;-74
2023/10/28 09:01:28;;;;;;;5.97;5.37;;;11.40;99.90;;;;;;5031118;28;20179;-75
2023/10/28 09:04:01;;;;;;;9.40;5.50;;;11.60;99.90;;;;;;5030699;28;20202;-75
2023/10/28 09:06:28;;;;;;;8.00;5.83;;;11.70;99.90;;;;;;5031040;28;20225;-75
2023/10/28 09:08:54;;;;;;;9.37;6.10;;;11.90;99.90;;;;;;5031097;28;20607;-74
2023/10/28 09:11:21;;;;;;;8.60;6.10;;;12.10;99.90;;;;;;5030987;28;20199;-75
2023/10/28 09:13:47;;;;;;;7.43;5.80;;;12.30;99.90;;;;;;5030962;28;20199;-74
2023/10/28 09:16:14;;;;;;;8.27;5.87;;;12.40;99.90;;;;;;5031106;28;20195;-74
2023/10/28 09:18:41;;;;;;;8.17;5.80;;;12.60;99.90;;;;;;5030386;28;20168;-75
2023/10/28 09:21:10;;;;;;;13.20;6.10;;;12.60;99.90;;;;;;5030865;28;20176;-75
2023/10/28 09:23:37;;;;;;;13.60;6.60;;;12.70;99.90;;;;;;5031307;28;20321;-73
2023/10/28 09:26:04;;;;;;;7.77;5.90;;;12.70;99.90;;;;;;5030863;28;20184;-73
2023/10/28 09:28:30;;;;;;;8.27;5.30;;;12.70;99.90;;;;;;5030526;28;20170;-73
2023/10/28 09:30:57;;;;;;;9.83;8.83;;;12.80;99.90;;;;;;5030369;28;20172;-73
2023/10/28 09:33:23;;;;;;;8.93;5.90;;;12.80;99.90;;;;;;5031057;28;20608;-73
2023/10/28 09:35:53;;;;;;;9.47;5.97;;;12.80;99.90;;;;;;5030566;28;20167;-73
2023/10/28 09:38:20;;;;;;;6.67;5.23;;;12.80;99.90;;;;;;5012219;28;20168;-73
2023/10/28 09:40:47;;;;;;;9.47;5.60;;;12.90;99.90;;;;;;5026763;28;20654;-73
2023/10/28 09:43:14;;;;;;;6.47;5.17;;;12.90;99.90;;;;;;5011006;28;20200;-73
2023/10/28 09:45:41;;;;;;;9.53;5.40;;;13.10;99.90;;;;;;5011190;28;20280;-73
2023/10/28 09:48:16;;;;;;;6.87;5.13;;;13.20;99.90;;;;;;5011424;28;20634;-73
2023/10/28 09:50:49;;;;;;;4.40;4.00;;;13.20;99.90;;;;;;5028343;28;20588;-73
2023/10/28 09:53:31;;;;;;;4.87;4.37;;;13.20;99.90;;;;;;5032838;28;20334;-73
2023/10/28 09:55:57;;;;;;;5.90;4.20;;;13.20;99.90;;;;;;5034112;28;20179;-73
2023/10/28 09:58:30;;;;;;;5.20;4.70;;;13.20;99.90;;;;;;5034458;28;20310;-73
2023/10/28 10:01:06;;;;;;;5.80;4.30;;;13.30;99.90;;;;;;5034084;28;20171;-74
2023/10/28 10:03:45;;;;;;;6.43;4.30;;;13.40;99.90;;;;;;5033912;28;20215;-73
2023/10/28 10:06:12;;;;;;;4.77;3.33;;;13.50;99.90;;;;;;5033938;28;20265;-73
2023/10/28 10:08:48;;;;;;;3.87;3.57;;;13.60;99.90;;;;;;5034474;28;20221;-73
2023/10/28 10:11:15;;;;;;;4.10;3.70;;;13.80;99.90;;;;;;5033682;28;20288;-74
2023/10/28 10:13:44;;;;;;;6.60;4.10;;;14.10;99.90;;;;;;5033819;28;20195;-74
2023/10/28 10:16:18;;;;;;;3.87;3.50;;;14.70;99.90;;;;;;5033057;28;20179;-74
2023/10/28 10:18:49;;;;;;;4.07;3.00;;;15.60;99.90;;;;;;5033576;28;20534;-75
2023/10/28 10:21:20;;;;;;;4.73;3.20;;;16.50;99.90;;;;;;5033661;28;20179;-75
2023/10/28 10:23:54;;;;;;;4.47;3.23;;;17.30;99.90;;;;;;5033692;28;20191;-75
2023/10/28 10:26:34;;;;;;;3.20;2.90;;;17.90;99.90;;;;;;5033669;28;20188;-74
2023/10/28 10:29:05;;;;;;;2.73;2.47;;;18.30;99.90;;;;;;5033748;28;20175;-74
2023/10/28 10:31:33;;;;;;;2.70;2.50;;;18.50;99.90;;;;;;5034047;28;20578;-76
2023/10/28 10:34:05;;;;;;;2.77;2.50;;;18.60;99.90;;;;;;5033245;28;20738;-75
2023/10/28 10:36:35;;;;;;;7.37;2.70;;;18.50;99.90;;;;;;5033563;28;20581;-73
2023/10/28 10:39:10;;;;;;;3.57;2.93;;;18.40;99.90;;;;;;5033512;28;20210;-73
2023/10/28 10:41:36;;;;;;;3.47;2.60;;;18.50;99.90;;;;;;5033709;28;20174;-73
2023/10/28 10:44:36;;;;;;;6.13;2.90;;;18.60;99.90;;;;;;5033060;28;20209;-72
2023/10/28 10:47:04;;;;;;;6.60;2.83;;;18.50;99.90;;;;;;5033544;28;20259;-75
2023/10/28 10:49:31;;;;;;;3.57;2.80;;;18.20;99.90;;;;;;5033170;28;20164;-75
2023/10/28 10:52:01;;;;;;;2.93;2.30;;;17.80;99.90;;;;;;5033059;28;20208;-73
2023/10/28 10:54:35;;;;;;;6.47;3.07;;;17.70;99.90;;;;;;5032714;28;20242;-73
2023/10/28 10:57:02;;;;;;;8.40;3.57;;;17.60;99.90;;;;;;5033396;28;20242;-74
2023/10/28 10:59:32;;;;;;;7.80;3.63;;;17.60;99.90;;;;;;5033044;28;20491;-73
2023/10/28 11:02:01;;;;;;;11.53;8.53;;;17.70;99.90;;;;;;5032806;28;20175;-72
2023/10/28 11:04:30;;;;;;;8.23;3.57;;;17.70;99.90;;;;;;5032711;28;20215;-71
2023/10/28 11:06:57;;;;;;;8.77;5.00;;;17.30;99.90;;;;;;5033012;28;20226;-73
2023/10/28 11:09:22;;;;;;;5.53;3.83;;;17.20;99.90;;;;;;5032988;28;20187;-75
2023/10/28 11:11:49;;;;;;;6.60;3.77;;;17.00;99.90;;;;;;5033040;28;20221;-72
2023/10/28 11:14:14;;;;;;;8.73;3.70;;;16.80;99.90;;;;;;5029332;28;20207;-72
2023/10/28 11:16:41;;;;;;;9.17;3.50;;;16.50;99.90;;;;;;5033161;28;20245;-74
2023/10/28 11:19:08;;;;;;;5.50;4.40;;;16.30;99.90;;;;;;5032828;28;20246;-73
2023/10/28 11:21:35;;;;;;;7.10;3.20;;;16.20;99.90;;;;;;5032515;28;20549;-75
2023/10/28 11:24:00;;;;;;;7.10;4.03;;;16.10;99.90;;;;;;5031784;28;20207;-73
2023/10/28 11:26:30;;;;;;;7.33;4.10;;;16.20;99.90;;;;;;5032694;28;20179;-73
2023/10/28 11:28:59;;;;;;;8.60;5.03;;;16.40;99.90;;;;;;5032384;28;20237;-73
2023/10/28 11:31:30;;;;;;;5.03;3.77;;;16.60;99.90;;;;;;5032491;28;20256;-72
2023/10/28 11:34:02;;;;;;;8.30;3.47;;;17.00;99.90;;;;;;5032215;28;20187;-73
2023/10/28 11:36:27;;;;;;;6.43;3.83;;;17.40;99.90;;;;;;5032643;28;20656;-74
2023/10/28 11:38:56;;;;;;;8.93;5.93;;;17.70;99.90;;;;;;5032625;28;20171;-73
2023/10/28 11:41:23;;;;;;;29.20;16.77;;;17.80;99.90;;;;;;5032543;28;20262;-73
2023/10/28 11:43:51;;;;;;;23.30;14.63;;;17.90;99.90;;;;;;5031832;28;20739;-72
2023/10/28 11:46:18;;;;;;;7.30;4.03;;;18.10;99.90;;;;;;5032222;28;20175;-73
2023/10/28 11:48:45;;;;;;;7.73;3.17;;;18.10;99.90;;;;;;5032315;28;20548;-73
2023/10/28 11:51:13;;;;;;;6.30;3.07;;;17.90;99.90;;;;;;5031836;28;20195;-73
2023/10/28 11:53:47;;;;;;;5.87;3.30;;;17.80;99.90;;;;;;5031251;28;20276;-73
2023/10/28 11:56:15;;;;;;;8.63;3.27;;;17.80;99.90;;;;;;5031915;28;20206;-74
2023/10/28 11:58:43;;;;;;;8.20;3.07;;;17.80;99.90;;;;;;5032307;28;20381;-72
2023/10/28 12:01:08;;;;;;;9.63;3.67;;;17.80;99.90;;;;;;5032166;28;20172;-73
2023/10/28 12:03:34;;;;;;;5.13;2.90;;;17.70;99.90;;;;;;5031604;28;20586;-73
2023/10/28 12:06:00;;;;;;;6.87;3.77;;;17.70;99.90;;;;;;5031758;28;20183;-73
2023/10/28 12:08:26;;;;;;;7.20;3.50;;;17.60;99.90;;;;;;5031972;28;21067;-73
2023/10/28 12:10:51;;;;;;;5.17;2.80;;;17.40;99.90;;;;;;5032226;28;20543;-73
2023/10/28 12:13:20;;;;;;;5.13;3.10;;;17.60;99.90;;;;;;5031814;28;20253;-73
2023/10/28 12:15:45;;;;;;;4.77;3.13;;;18.00;99.90;;;;;;5031859;28;20675;-74
2023/10/28 12:18:11;;;;;;;4.27;2.80;;;18.20;99.90;;;;;;5031756;28;20183;-73
2023/10/28 12:20:40;;;;;;;3.07;2.70;;;18.30;99.90;;;;;;5030144;28;20192;-72
2023/10/28 12:23:06;;;;;;;8.73;3.37;;;18.20;99.90;;;;;;5031971;28;20253;-73
2023/10/28 12:25:32;;;;;;;4.67;2.53;;;18.10;99.90;;;;;;5031800;28;20258;-73
2023/10/28 12:27:57;;;;;;;3.00;2.70;;;17.90;99.90;;;;;;5032045;28;20229;-72
2023/10/28 12:30:23;;;;;;;5.13;3.00;;;17.90;99.90;;;;;;5031804;28;20183;-72
2023/10/28 12:32:50;;;;;;;5.43;2.90;;;18.00;99.90;;;;;;5031251;28;20195;-73
2023/10/28 12:35:16;;;;;;;5.77;3.00;;;18.20;99.90;;;;;;5031504;28;20226;-73
2023/10/28 12:37:41;;;;;;;5.63;2.97;;;18.20;99.90;;;;;;5031802;28;20683;-72
2023/10/28 12:40:09;;;;;;;7.33;3.43;;;18.00;99.90;;;;;;5031727;28;20198;-74
2023/10/28 12:42:36;;;;;;;4.73;3.20;;;17.80;99.90;;;;;;5032133;28;20175;-73
2023/10/28 12:45:04;;;;;;;6.40;3.40;;;17.60;99.90;;;;;;5031471;28;20404;-74
2023/10/28 12:47:30;;;;;;;4.20;3.13;;;17.50;99.90;;;;;;5031535;28;20260;-73